Ana Sayfa
METAR-TAF:

METAR-TAF

Havaalanları :

Okayama, Japonya

Enlem: 34-45N, Boylam: 133-51E, yükseklik: 241 m

Güncel hava durumu gözlemi

Rapor saat 08:00 UTC de 1 saat ve 9 dakika önce yapıldı.
Rüzgar batıdan 14 kt, batı/güneybatı ve kuzeybatı arasında değişken
Sıcaklık 7°C
Nem 39%
Basınç 1011 hPa
Görüş mesafesi 10 km veya daha fazla
3000 ft yükseklikte az bulutlu

METAR: RJOB 010800Z 28014KT 240V310 9999 FEW030 07/M06 Q1011

Saat: 18:09 (09:09 UTC)

Tahmin

Rapor saat 05:05 UTC de 4 saat ve 4 dakika önce yapıldı.
Ayın 01'si saat 06 UTC'den ayın 02'si saat 12 UTC'ye kadar geçerli Tahmin
Rüzgar batı/kuzeybatıdan 13 kt
Görüş mesafesi 10 km veya daha fazla
2000 ft yükseklikte az bulutlu
4500 ft yükseklikte parçalı bulutlu
Geçici
ayın 01'si saat 06 UTC'den ayın 01'si saat 11 UTC'ye kadar
Rüzgar batıdan 17 kt ve 29 kt'a kadar ani rüzgarlar

TAF: RJOB 010505Z 0106/0212 29013KT 9999 FEW020 SCT045 TEMPO 0106/0111 27017G29KT

4.000'den fazla havaalanı için hava durumu gözlemleri ve tahminleri (METAR ve TAF raporları).

Kullanılabilir istasyonlar harita üzerinde sarı ve kırmızı noktalarla gösterilir.

İstasyonun adını görmek için fareyi noktanın üzerinde gezdirin.

Sonrasında hava gözlem ve tahminlerini görmek için tıklayın.

Haritayı değiştirmek için: yaklaştırmak için siyah artı işaretli yeşil düğmeye ve uzaklaştırmak için de eksi işaretli düğmeye hızla tıklayın; bitişik haritalar için yeşil okları kullanın.


METAR-TAF: